Time;durP1;ratioP1;P1;durP2;ratioP2;P2;SDS_P1;SDS_P2;PMS_P1;PMS_P2;Temp;Humidity;BMP_temperature;BMP_pressure;BME280_temperature;BME280_humidity;BME280_pressure;Samples;Min_cycle;Max_cycle;Signal;HPM_P1;HPM_P2
2021/11/09 00:00:35;;;;;;;10.40;3.72;;;9.60;99.90;;;;;;5075382;28;20095;-40
2021/11/09 00:03:06;;;;;;;13.45;4.53;;;9.60;99.90;;;;;;5073906;28;20457;-39
2021/11/09 00:05:32;;;;;;;14.75;3.92;;;9.50;99.90;;;;;;5075296;28;20021;-39
2021/11/09 00:08:00;;;;;;;10.48;4.07;;;9.60;99.90;;;;;;5075179;28;20028;-39
2021/11/09 00:10:28;;;;;;;7.53;4.13;;;9.60;99.90;;;;;;5075267;28;20027;-38
2021/11/09 00:12:58;;;;;;;11.45;4.32;;;9.60;99.90;;;;;;5073964;28;20029;-38
2021/11/09 00:15:24;;;;;;;13.60;4.45;;;9.60;99.90;;;;;;5075195;28;20403;-39
2021/11/09 00:17:53;;;;;;;8.70;3.90;;;9.60;99.90;;;;;;5075094;28;20514;-38
2021/11/09 00:20:21;;;;;;;12.25;3.80;;;9.60;99.90;;;;;;5074908;28;20119;-41
2021/11/09 00:22:47;;;;;;;12.85;4.15;;;9.60;99.90;;;;;;5074877;28;20111;-39
2021/11/09 00:25:14;;;;;;;8.35;4.10;;;9.60;99.90;;;;;;5074075;28;20028;-42
2021/11/09 00:27:39;;;;;;;8.63;3.65;;;9.60;99.90;;;;;;5073891;28;20025;-39
2021/11/09 00:30:08;;;;;;;15.52;4.18;;;9.60;99.90;;;;;;5074738;28;20032;-39
2021/11/09 00:32:34;;;;;;;9.77;4.50;;;9.60;99.90;;;;;;5074548;28;20139;-38
2021/11/09 00:35:00;;;;;;;9.18;4.00;;;9.50;99.90;;;;;;5074648;28;20028;-41
2021/11/09 00:37:26;;;;;;;10.88;4.55;;;9.50;99.90;;;;;;5074744;28;20059;-37
2021/11/09 00:39:52;;;;;;;11.82;3.90;;;9.60;99.90;;;;;;5074510;28;20052;-39
2021/11/09 00:42:18;;;;;;;7.15;3.63;;;9.60;99.90;;;;;;5073579;28;20025;-38
2021/11/09 00:44:44;;;;;;;8.55;3.88;;;9.60;99.90;;;;;;5074537;28;20024;-41
2021/11/09 00:47:09;;;;;;;15.60;4.47;;;9.60;99.90;;;;;;5074398;28;20067;-38
2021/11/09 00:49:36;;;;;;;10.25;4.13;;;9.60;99.90;;;;;;5074519;28;20059;-38
2021/11/09 00:52:03;;;;;;;11.27;3.30;;;9.50;99.90;;;;;;5074439;28;20073;-38
2021/11/09 00:54:29;;;;;;;8.80;4.15;;;9.60;99.90;;;;;;5074097;28;20029;-38
2021/11/09 00:56:54;;;;;;;12.70;4.35;;;9.60;99.90;;;;;;5073402;28;20025;-38
2021/11/09 00:59:20;;;;;;;10.60;4.43;;;9.60;99.90;;;;;;5074263;28;20037;-38
2021/11/09 01:01:46;;;;;;;10.73;4.20;;;9.60;99.90;;;;;;5074305;28;20468;-43
2021/11/09 01:04:11;;;;;;;14.13;5.13;;;9.60;99.90;;;;;;5074159;28;20029;-39
2021/11/09 01:06:37;;;;;;;17.63;4.35;;;9.50;99.90;;;;;;5074115;28;20078;-39
2021/11/09 01:09:05;;;;;;;13.07;5.22;;;9.50;99.90;;;;;;5073692;28;20070;-39
2021/11/09 01:11:30;;;;;;;15.60;5.18;;;9.50;99.90;;;;;;5073240;28;20086;-40
2021/11/09 01:13:56;;;;;;;15.32;5.65;;;9.50;99.90;;;;;;5073472;28;20032;-38
2021/11/09 01:16:22;;;;;;;15.23;4.72;;;9.40;99.90;;;;;;5073847;28;20471;-38
2021/11/09 01:18:51;;;;;;;7.65;4.10;;;9.50;99.90;;;;;;5073821;28;20017;-37
2021/11/09 01:21:18;;;;;;;10.68;5.22;;;9.50;99.90;;;;;;5073575;28;20066;-38
2021/11/09 01:23:47;;;;;;;12.98;5.47;;;9.50;99.90;;;;;;5073665;28;20024;-38
2021/11/09 01:26:14;;;;;;;10.95;5.00;;;9.50;99.90;;;;;;5073660;28;20483;-38
2021/11/09 01:28:41;;;;;;;9.45;5.10;;;9.50;99.90;;;;;;5072762;28;20423;-38
2021/11/09 01:31:08;;;;;;;12.43;4.93;;;9.50;99.90;;;;;;5073548;28;20383;-38
2021/11/09 01:33:35;;;;;;;13.63;5.38;;;9.50;99.90;;;;;;5073278;28;20052;-38
2021/11/09 01:36:01;;;;;;;12.48;4.75;;;9.50;99.90;;;;;;5072554;28;20031;-38
2021/11/09 01:38:27;;;;;;;10.57;4.47;;;9.50;99.90;;;;;;5073366;28;20032;-38
2021/11/09 01:40:53;;;;;;;12.40;5.80;;;9.50;99.90;;;;;;5073488;28;20134;-38
2021/11/09 01:43:21;;;;;;;15.88;5.55;;;9.50;99.90;;;;;;5072384;28;20039;-38
2021/11/09 01:45:48;;;;;;;15.95;5.95;;;9.50;99.90;;;;;;5073358;28;20056;-41
2021/11/09 01:48:14;;;;;;;10.30;4.95;;;9.50;99.90;;;;;;5073232;28;20024;-40
2021/11/09 01:50:43;;;;;;;13.68;5.43;;;9.40;99.90;;;;;;5073096;28;20510;-39
2021/11/09 01:53:10;;;;;;;12.35;5.00;;;9.40;99.90;;;;;;5073072;28;20119;-40
2021/11/09 01:55:36;;;;;;;17.38;5.88;;;9.50;99.90;;;;;;5073253;28;20462;-40
2021/11/09 01:58:04;;;;;;;17.73;5.63;;;9.50;99.90;;;;;;5072193;28;20056;-40
2021/11/09 02:00:43;;;;;;;8.68;4.43;;;9.40;99.90;;;;;;5073027;28;20078;-37
2021/11/09 02:03:09;;;;;;;13.27;6.03;;;9.50;99.90;;;;;;5073025;28;20418;-42
2021/11/09 02:05:35;;;;;;;13.43;5.15;;;9.50;99.90;;;;;;5072979;28;20032;-41
2021/11/09 02:08:03;;;;;;;14.38;5.88;;;9.40;99.90;;;;;;5073069;28;20112;-39
2021/11/09 02:10:32;;;;;;;17.98;5.72;;;9.40;99.90;;;;;;5072881;28;20032;-38
2021/11/09 02:12:58;;;;;;;18.45;6.57;;;9.40;99.90;;;;;;5071964;28;20116;-40
2021/11/09 02:15:25;;;;;;;14.80;5.70;;;9.40;99.90;;;;;;5072843;28;20027;-39
2021/11/09 02:17:51;;;;;;;14.50;5.40;;;9.40;99.90;;;;;;5072789;28;20032;-41
2021/11/09 02:20:19;;;;;;;15.30;6.30;;;9.40;99.90;;;;;;5072792;28;20017;-38
2021/11/09 02:22:45;;;;;;;16.33;5.90;;;9.40;99.90;;;;;;5072907;28;20082;-38
2021/11/09 02:25:14;;;;;;;18.08;6.75;;;9.40;99.90;;;;;;5072788;28;20060;-38
2021/11/09 02:27:40;;;;;;;16.95;6.55;;;9.40;99.90;;;;;;5071911;28;20029;-38
2021/11/09 02:30:08;;;;;;;11.60;5.85;;;9.40;99.90;;;;;;5072696;28;20032;-41
2021/11/09 02:32:34;;;;;;;17.30;6.75;;;9.40;99.90;;;;;;5072296;28;20044;-37
2021/11/09 02:34:59;;;;;;;14.65;6.38;;;9.40;99.90;;;;;;5072683;28;20044;-38
2021/11/09 02:37:25;;;;;;;20.45;6.72;;;9.40;99.90;;;;;;5072660;28;20048;-41
2021/11/09 02:39:51;;;;;;;15.93;6.68;;;9.40;99.90;;;;;;5072626;28;20484;-41
2021/11/09 02:42:19;;;;;;;19.25;6.85;;;9.40;99.90;;;;;;5071602;28;20024;-38
2021/11/09 02:45:18;;;;;;;14.23;7.30;;;9.40;99.90;;;;;;5072672;28;20024;-39
2021/11/09 02:47:56;;;;;;;13.75;5.70;;;9.40;99.90;;;;;;5076703;28;20056;-38
2021/11/09 02:50:25;;;;;;;15.00;6.25;;;9.40;99.90;;;;;;5079146;28;20032;-39
2021/11/09 02:53:01;;;;;;;14.00;6.07;;;9.40;99.90;;;;;;5079159;28;20021;-40
2021/11/09 02:55:37;;;;;;;16.20;6.32;;;9.40;99.90;;;;;;5078974;28;20103;-38
2021/11/09 02:58:14;;;;;;;19.45;6.00;;;9.40;99.90;;;;;;5078185;28;20021;-38
2021/11/09 03:00:52;;;;;;;13.93;6.05;;;9.40;99.90;;;;;;5079100;28;20209;-40
2021/11/09 03:03:24;;;;;;;11.68;6.22;;;9.30;99.90;;;;;;5078983;28;20099;-39
2021/11/09 03:06:00;;;;;;;11.65;5.25;;;9.30;99.90;;;;;;5078908;28;20044;-38
2021/11/09 03:08:32;;;;;;;11.07;4.88;;;9.30;99.90;;;;;;5079026;28;20460;-38
2021/11/09 03:10:59;;;;;;;10.65;5.43;;;9.30;99.90;;;;;;5078977;28;20024;-40
2021/11/09 03:13:26;;;;;;;10.40;5.30;;;9.40;99.90;;;;;;5077827;28;20423;-38
2021/11/09 03:15:54;;;;;;;12.55;5.15;;;9.30;99.90;;;;;;5079061;28;20095;-38
2021/11/09 03:18:22;;;;;;;12.23;4.80;;;9.30;99.90;;;;;;5078760;28;20164;-41
2021/11/09 03:20:56;;;;;;;12.25;4.95;;;9.30;99.90;;;;;;5078926;28;20066;-38
2021/11/09 03:45:09;;;;;;;8.20;4.07;;;9.30;99.90;;;;;;5078764;28;20082;-40
2021/11/09 03:47:39;;;;;;;7.18;4.50;;;9.40;99.90;;;;;;5078462;28;20387;-38
2021/11/09 03:50:08;;;;;;;7.10;4.60;;;9.40;99.90;;;;;;5078772;28;20028;-45
2021/11/09 03:52:41;;;;;;;12.77;4.97;;;9.30;99.90;;;;;;5078501;28;20024;-40
2021/11/09 03:55:11;;;;;;;9.38;5.28;;;9.30;99.90;;;;;;5078763;28;20068;-38
2021/11/09 03:57:47;;;;;;;11.05;5.57;;;9.40;99.90;;;;;;5077583;28;20020;-38
2021/11/09 04:00:27;;;;;;;12.38;5.75;;;9.40;99.90;;;;;;5074515;28;20361;-42
2021/11/09 04:02:59;;;;;;;14.82;6.28;;;9.30;99.90;;;;;;5075440;28;20044;-38
2021/11/09 04:05:33;;;;;;;12.48;5.97;;;9.30;99.90;;;;;;5075271;28;20021;-39
2021/11/09 04:10:58;;;;;;;11.77;5.72;;;9.40;99.90;;;;;;5075444;28;20028;-41
2021/11/09 04:13:30;;;;;;;10.73;5.00;;;9.30;99.90;;;;;;5074128;28;20116;-38
2021/11/09 04:16:24;;;;;;;10.43;5.15;;;9.30;99.90;;;;;;5075228;28;20392;-39
2021/11/09 04:21:33;;;;;;;5.57;4.03;;;9.30;99.90;;;;;;5075154;28;20062;-43
2021/11/09 04:24:25;;;;;;;7.55;4.10;;;9.30;99.90;;;;;;5075127;28;20063;-38
2021/11/09 04:27:16;;;;;;;9.93;5.28;;;9.30;99.90;;;;;;5073874;28;20052;-38
2021/11/09 04:32:52;;;;;;;6.05;3.70;;;9.30;99.90;;;;;;5058295;28;20040;-38
2021/11/09 04:35:55;;;;;;;7.28;4.20;;;9.40;99.90;;;;;;5074778;28;20027;-37
2021/11/09 04:45:02;;;;;;;9.32;4.90;;;9.40;99.90;;;;;;5073816;28;20093;-38
2021/11/09 05:08:23;;;;;;;15.75;6.70;;;9.40;99.90;;;;;;5073970;28;20030;-38
2021/11/09 05:10:51;;;;;;;17.98;7.18;;;9.50;99.90;;;;;;5073904;28;20188;-41
2021/11/09 05:13:17;;;;;;;14.38;6.43;;;9.50;99.90;;;;;;5063215;28;20040;-37
2021/11/09 05:15:43;;;;;;;14.38;6.50;;;9.40;99.90;;;;;;5053445;28;20033;-37
2021/11/09 05:18:09;;;;;;;15.80;7.40;;;9.50;99.90;;;;;;5053828;28;20027;-37
2021/11/09 05:20:34;;;;;;;15.43;6.63;;;9.50;99.90;;;;;;5053581;28;20017;-38
2021/11/09 05:23:00;;;;;;;11.93;6.25;;;9.40;99.90;;;;;;5053724;28;20025;-39
2021/11/09 05:25:26;;;;;;;13.13;7.13;;;9.50;99.90;;;;;;5053639;28;20096;-37
2021/11/09 05:27:52;;;;;;;17.85;7.15;;;9.50;99.90;;;;;;5052451;28;20044;-38
2021/11/09 05:30:18;;;;;;;15.60;6.60;;;9.50;99.90;;;;;;5053617;28;20028;-37
2021/11/09 05:32:44;;;;;;;13.55;6.90;;;9.50;99.90;;;;;;5053206;28;20389;-38
2021/11/09 05:35:11;;;;;;;14.65;6.88;;;9.50;99.90;;;;;;5053502;28;20391;-37
2021/11/09 05:37:43;;;;;;;15.40;6.28;;;9.50;99.90;;;;;;5053322;28;20430;-38
2021/11/09 05:40:10;;;;;;;14.20;7.05;;;9.50;99.90;;;;;;5053326;28;20031;-38
2021/11/09 05:42:35;;;;;;;14.80;6.85;;;9.50;99.90;;;;;;5052274;28;20031;-38
2021/11/09 05:45:02;;;;;;;11.80;5.97;;;9.50;99.90;;;;;;5053262;28;20103;-38
2021/11/09 05:47:28;;;;;;;16.20;7.25;;;9.50;99.90;;;;;;5053212;28;20504;-39
2021/11/09 05:49:54;;;;;;;12.18;6.68;;;9.40;99.90;;;;;;5054204;28;20352;-40
2021/11/09 05:52:20;;;;;;;12.65;7.20;;;9.40;99.90;;;;;;5071664;28;20023;-40
2021/11/09 05:54:46;;;;;;;13.27;7.43;;;9.30;99.90;;;;;;5070679;28;20025;-37
2021/11/09 05:57:11;;;;;;;16.85;7.22;;;9.30;99.90;;;;;;5070155;28;20124;-38
2021/11/09 05:59:37;;;;;;;16.52;8.25;;;9.30;99.90;;;;;;5071393;28;20029;-42
2021/11/09 06:02:03;;;;;;;13.55;6.63;;;9.40;99.90;;;;;;5071713;28;20020;-40
2021/11/09 06:04:28;;;;;;;19.25;8.05;;;9.30;99.90;;;;;;5071828;28;20052;-39
2021/11/09 06:06:54;;;;;;;17.70;6.95;;;9.40;99.90;;;;;;5071514;28;20024;-37
2021/11/09 06:09:19;;;;;;;14.95;7.07;;;9.40;99.90;;;;;;5071597;28;20032;-38
2021/11/09 06:11:45;;;;;;;16.95;7.65;;;9.40;99.90;;;;;;5070654;28;20113;-40
2021/11/09 06:14:10;;;;;;;12.38;6.88;;;9.40;99.90;;;;;;5071539;28;20051;-40
2021/11/09 06:16:36;;;;;;;19.33;7.13;;;9.40;99.90;;;;;;5071437;28;20390;-41
2021/11/09 06:19:03;;;;;;;18.58;7.05;;;9.40;99.90;;;;;;5071523;28;20475;-40
2021/11/09 06:21:29;;;;;;;15.90;7.20;;;9.40;99.90;;;;;;5071020;28;20020;-40
2021/11/09 06:23:54;;;;;;;19.33;7.53;;;9.40;99.90;;;;;;5071466;28;20025;-38
2021/11/09 06:26:22;;;;;;;14.90;7.95;;;9.40;99.90;;;;;;5071036;28;20051;-38
2021/11/09 06:28:48;;;;;;;18.23;7.65;;;9.50;99.90;;;;;;5052987;28;20043;-41
2021/11/09 06:31:13;;;;;;;19.75;8.98;;;9.50;99.90;;;;;;5051237;28;20362;-38
2021/11/09 06:33:39;;;;;;;17.33;7.75;;;9.50;99.90;;;;;;5051003;28;20045;-37
2021/11/09 06:36:04;;;;;;;17.70;7.80;;;9.50;99.90;;;;;;5051135;28;20025;-40
2021/11/09 06:38:30;;;;;;;15.70;8.50;;;9.40;99.90;;;;;;5050792;28;20072;-37
2021/11/09 06:40:55;;;;;;;18.42;8.20;;;9.40;99.90;;;;;;5050816;28;20021;-38
2021/11/09 06:43:21;;;;;;;14.75;8.23;;;9.40;99.90;;;;;;5050200;28;20059;-40
2021/11/09 06:45:46;;;;;;;17.25;9.13;;;9.50;99.90;;;;;;5050945;28;20025;-38
2021/11/09 06:48:12;;;;;;;20.00;8.90;;;9.50;99.90;;;;;;5050971;28;20539;-37
2021/11/09 06:50:38;;;;;;;10.70;6.88;;;9.50;99.90;;;;;;5050913;28;20024;-38
2021/11/09 06:53:04;;;;;;;17.27;7.05;;;9.50;99.90;;;;;;5050891;28;20465;-39
2021/11/09 06:55:29;;;;;;;17.92;8.07;;;9.50;99.90;;;;;;5050776;28;20477;-37
2021/11/09 06:57:55;;;;;;;16.95;7.85;;;9.50;99.90;;;;;;5050173;28;20028;-38
2021/11/09 07:00:23;;;;;;;13.02;7.38;;;9.50;99.90;;;;;;5051181;28;20036;-38
2021/11/09 07:02:49;;;;;;;12.85;7.72;;;9.60;99.90;;;;;;5051456;28;20037;-38
2021/11/09 07:05:17;;;;;;;13.90;6.97;;;9.60;99.90;;;;;;5055528;28;20021;-38
2021/11/09 07:07:42;;;;;;;14.55;7.07;;;9.60;99.90;;;;;;5070886;28;20024;-37
2021/11/09 07:10:08;;;;;;;17.70;8.50;;;9.70;99.90;;;;;;5070802;28;20024;-38
2021/11/09 07:12:35;;;;;;;13.95;8.25;;;9.70;99.90;;;;;;5069958;28;20479;-39
2021/11/09 07:15:01;;;;;;;15.98;7.60;;;9.80;99.90;;;;;;5015171;28;20052;-40
2021/11/09 07:17:26;;;;;;;14.25;7.78;;;9.70;99.90;;;;;;5006339;28;20038;-38
2021/11/09 07:19:52;;;;;;;16.65;7.70;;;9.80;99.90;;;;;;5032175;28;20046;-42
2021/11/09 07:22:20;;;;;;;18.48;8.68;;;9.80;99.90;;;;;;5032321;28;20022;-39
2021/11/09 07:24:46;;;;;;;16.25;7.70;;;9.80;99.90;;;;;;5032081;28;20029;-39
2021/11/09 07:27:18;;;;;;;18.88;7.88;;;9.80;99.90;;;;;;5031278;28;20033;-39
2021/11/09 07:29:48;;;;;;;16.35;8.13;;;9.80;99.90;;;;;;5032123;28;20029;-39
2021/11/09 07:32:16;;;;;;;10.40;6.65;;;9.80;99.90;;;;;;5031987;28;20515;-37
2021/11/09 07:34:41;;;;;;;14.98;7.80;;;9.80;99.90;;;;;;5033969;28;20034;-38
2021/11/09 07:37:07;;;;;;;15.02;7.30;;;9.80;99.90;;;;;;5035957;28;20178;-39
2021/11/09 07:39:33;;;;;;;16.17;7.75;;;9.90;99.90;;;;;;5035896;28;20465;-38
2021/11/09 07:41:58;;;;;;;16.52;7.63;;;9.90;99.90;;;;;;5033573;28;20029;-39
2021/11/09 07:44:24;;;;;;;16.45;7.70;;;9.90;99.90;;;;;;5036063;28;20072;-38
2021/11/09 07:46:49;;;;;;;21.70;9.45;;;9.90;99.90;;;;;;5035698;28;20112;-38
2021/11/09 07:49:15;;;;;;;18.25;8.98;;;10.00;99.90;;;;;;5035689;28;20025;-38
2021/11/09 07:51:40;;;;;;;16.77;8.68;;;10.00;99.90;;;;;;5035481;28;20516;-41
2021/11/09 07:54:06;;;;;;;21.85;9.90;;;10.00;99.90;;;;;;5035480;28;20040;-37
2021/11/09 07:56:36;;;;;;;18.77;9.23;;;10.00;99.90;;;;;;5034668;28;20029;-40
2021/11/09 08:04:24;;;;;;;16.50;8.00;;;10.00;99.90;;;;;;5035288;28;20044;-40
2021/11/09 08:09:23;;;;;;;17.85;8.65;;;10.10;99.90;;;;;;5035450;28;20075;-37
2021/11/09 08:11:49;;;;;;;15.75;8.35;;;10.20;99.90;;;;;;5034250;28;20495;-38
2021/11/09 08:14:15;;;;;;;15.98;7.03;;;10.20;99.90;;;;;;5035220;28;20037;-37
2021/11/09 08:16:42;;;;;;;14.68;6.35;;;10.20;99.90;;;;;;5035085;28;20465;-38
2021/11/09 08:19:07;;;;;;;15.38;8.25;;;10.20;99.90;;;;;;5035050;28;20079;-38
2021/11/09 08:21:35;;;;;;;13.05;7.03;;;10.20;99.90;;;;;;5035199;28;20420;-37
2021/11/09 08:24:02;;;;;;;14.38;6.78;;;10.20;99.90;;;;;;5035037;28;20033;-38
2021/11/09 08:26:28;;;;;;;12.75;7.10;;;10.20;99.90;;;;;;5034132;28;20056;-37
2021/11/09 08:28:56;;;;;;;13.18;6.35;;;10.30;99.90;;;;;;5034817;28;20072;-38
2021/11/09 08:31:25;;;;;;;14.00;5.82;;;10.30;99.90;;;;;;5034832;28;20025;-38
2021/11/09 08:33:51;;;;;;;12.40;6.05;;;10.30;99.90;;;;;;5034699;28;20095;-37
2021/11/09 08:36:23;;;;;;;14.00;5.90;;;10.30;99.90;;;;;;5034924;28;20152;-37
2021/11/09 08:38:50;;;;;;;11.50;5.68;;;10.30;99.90;;;;;;5034735;28;20025;-37
2021/11/09 08:41:17;;;;;;;12.65;5.65;;;10.40;99.90;;;;;;5034681;28;20025;-38
2021/11/09 08:44:19;;;;;;;15.70;5.90;;;10.50;99.90;;;;;;5034115;28;20029;-38
2021/11/09 08:46:49;;;;;;;12.77;5.25;;;10.50;99.90;;;;;;5033164;28;20374;-37
2021/11/09 08:49:18;;;;;;;11.65;5.65;;;10.60;99.90;;;;;;5034529;28;20116;-37
2021/11/09 08:51:44;;;;;;;11.88;6.00;;;10.70;99.90;;;;;;5034602;28;20481;-37
2021/11/09 08:54:20;;;;;;;13.65;6.32;;;10.70;99.90;;;;;;5034306;28;20033;-39
2021/11/09 09:04:40;;;;;;;15.98;5.50;;;10.90;99.90;;;;;;5034470;28;20507;-40
2021/11/09 09:07:07;;;;;;;14.07;5.28;;;10.90;99.90;;;;;;5034230;28;20038;-39
2021/11/09 09:09:33;;;;;;;13.35;5.25;;;11.00;99.90;;;;;;5034211;28;20025;-40
2021/11/09 09:11:59;;;;;;;17.52;5.75;;;11.00;99.90;;;;;;5033186;28;20051;-40
2021/11/09 09:14:25;;;;;;;17.05;6.63;;;11.10;99.90;;;;;;5034146;28;20061;-38
2021/11/09 09:16:51;;;;;;;10.18;4.60;;;11.10;99.90;;;;;;5034004;28;20112;-38
2021/11/09 09:19:20;;;;;;;11.35;4.85;;;11.30;99.90;;;;;;5033903;28;20091;-41
2021/11/09 09:21:55;;;;;;;5.75;3.75;;;11.40;99.90;;;;;;5033945;28;20025;-40
2021/11/09 09:53:57;;;;;;;6.65;4.05;;;13.20;99.90;;;;;;5033333;28;20454;-38
2021/11/09 09:59:29;;;;;;;7.80;3.90;;;13.30;99.90;;;;;;5021273;28;20042;-38
2021/11/09 10:02:24;;;;;;;8.95;4.20;;;13.40;99.90;;;;;;5033161;28;20032;-38
2021/11/09 10:04:54;;;;;;;9.70;4.68;;;13.50;99.90;;;;;;5033206;28;20022;-37
2021/11/09 10:07:29;;;;;;;11.63;4.45;;;13.60;99.90;;;;;;5033132;28;20025;-39
2021/11/09 10:09:55;;;;;;;12.85;4.18;;;13.60;99.90;;;;;;5033079;28;20060;-41
2021/11/09 10:12:33;;;;;;;11.15;3.65;;;13.60;99.90;;;;;;5032152;28;20034;-38
2021/11/09 10:15:06;;;;;;;9.75;3.78;;;13.70;99.90;;;;;;5032952;28;20477;-39
2021/11/09 10:17:33;;;;;;;9.10;4.25;;;13.80;99.90;;;;;;5033042;28;20040;-39
2021/11/09 10:20:10;;;;;;;9.68;3.40;;;13.70;99.90;;;;;;5031574;28;20116;-39
2021/11/09 10:22:37;;;;;;;9.63;4.05;;;13.60;99.90;;;;;;5032912;28;20026;-38
2021/11/09 10:25:06;;;;;;;7.65;3.70;;;13.50;99.90;;;;;;5032810;28;20112;-38
2021/11/09 10:27:34;;;;;;;7.90;4.13;;;13.50;99.90;;;;;;5032074;28;20044;-39
2021/11/09 10:30:10;;;;;;;11.55;4.72;;;13.40;99.90;;;;;;5032764;28;20469;-38
2021/11/09 10:32:36;;;;;;;10.95;5.15;;;13.30;99.90;;;;;;5032563;28;20436;-38
2021/11/09 10:35:04;;;;;;;7.95;3.88;;;13.10;99.90;;;;;;5032737;28;20026;-38
2021/11/09 10:37:32;;;;;;;12.05;4.60;;;13.00;99.90;;;;;;5032864;28;20232;-38
2021/11/09 10:40:01;;;;;;;11.32;4.53;;;12.90;99.90;;;;;;5032669;28;20028;-38
2021/11/09 10:42:28;;;;;;;6.90;3.72;;;12.70;99.90;;;;;;5031694;28;20026;-38
2021/11/09 10:45:00;;;;;;;6.60;3.15;;;12.60;99.90;;;;;;5032572;28;20033;-39
2021/11/09 10:47:32;;;;;;;9.60;4.03;;;12.50;99.90;;;;;;5032534;28;20543;-39
2021/11/09 10:50:00;;;;;;;7.65;4.00;;;12.40;99.90;;;;;;5032514;28;20109;-39
2021/11/09 10:52:34;;;;;;;10.60;3.97;;;12.30;99.90;;;;;;5032424;28;20253;-38
2021/11/09 10:55:09;;;;;;;5.43;2.75;;;12.30;99.90;;;;;;5032471;28;20029;-38
2021/11/09 10:57:49;;;;;;;4.35;2.92;;;12.30;99.90;;;;;;5031595;28;20120;-41
2021/11/09 11:03:33;;;;;;;14.55;4.80;;;12.30;99.90;;;;;;4952152;29;20032;-38
2021/11/09 11:06:16;;;;;;;12.10;4.45;;;12.20;99.90;;;;;;5025337;28;20037;-38
2021/11/09 11:08:43;;;;;;;7.22;3.50;;;12.20;99.90;;;;;;5034661;28;20077;-38
2021/11/09 11:11:23;;;;;;;9.00;4.25;;;12.20;99.90;;;;;;5035096;28;20026;-41
2021/11/09 11:13:52;;;;;;;8.55;3.75;;;12.30;99.90;;;;;;5036357;28;20056;-38
2021/11/09 11:16:19;;;;;;;7.53;3.67;;;12.30;99.90;;;;;;5036184;28;20067;-40
2021/11/09 11:18:54;;;;;;;11.40;4.25;;;12.30;99.90;;;;;;5036322;28;20056;-40
2021/11/09 11:21:22;;;;;;;11.45;4.20;;;12.40;99.90;;;;;;5036225;28;20026;-38
2021/11/09 11:23:49;;;;;;;8.20;3.95;;;12.40;99.90;;;;;;5036248;28;20025;-39
2021/11/09 11:26:16;;;;;;;6.55;3.20;;;12.50;99.90;;;;;;5035514;28;20469;-38
2021/11/09 11:28:44;;;;;;;9.80;3.40;;;12.60;99.90;;;;;;5035869;28;20112;-40
2021/11/09 11:31:12;;;;;;;10.98;3.20;;;12.60;99.90;;;;;;5035981;28;20030;-38
2021/11/09 11:33:38;;;;;;;5.70;2.95;;;12.70;99.90;;;;;;5035936;28;20038;-38
2021/11/09 11:36:05;;;;;;;12.15;3.33;;;12.80;99.90;;;;;;5035993;28;20021;-38
2021/11/09 11:38:33;;;;;;;11.10;4.00;;;12.80;99.90;;;;;;5035924;28;20026;-38
2021/11/09 11:41:00;;;;;;;9.02;3.75;;;12.80;99.90;;;;;;5035860;28;20017;-41
2021/11/09 11:43:53;;;;;;;10.27;3.90;;;12.80;99.90;;;;;;5034828;28;20037;-39
2021/11/09 11:46:34;;;;;;;14.82;4.28;;;12.60;99.90;;;;;;5032330;28;20037;-39
2021/11/09 11:49:12;;;;;;;9.07;3.90;;;12.60;99.90;;;;;;5035791;28;20026;-38
2021/11/09 11:52:02;;;;;;;13.18;3.90;;;12.50;99.90;;;;;;5035555;28;20029;-37
2021/11/09 11:55:03;;;;;;;7.55;2.92;;;12.50;99.90;;;;;;5035425;28;20033;-37
2021/11/09 11:57:36;;;;;;;8.88;2.95;;;12.50;99.90;;;;;;5034601;28;20018;-38
2021/11/09 12:00:28;;;;;;;11.48;3.55;;;12.50;99.90;;;;;;5035456;28;20101;-38
2021/11/09 12:02:53;;;;;;;14.05;4.15;;;12.60;99.90;;;;;;5035461;28;20411;-38
2021/11/09 12:05:35;;;;;;;6.53;3.03;;;12.70;99.90;;;;;;5035403;28;20044;-38
2021/11/09 12:08:02;;;;;;;8.48;3.20;;;12.80;99.90;;;;;;5035435;28;20481;-38
2021/11/09 12:10:48;;;;;;;8.82;2.63;;;12.80;99.90;;;;;;5033941;28;20030;-38
2021/11/09 12:13:21;;;;;;;6.20;2.28;;;12.60;99.90;;;;;;5034118;28;20033;-38
2021/11/09 12:15:57;;;;;;;5.20;2.58;;;12.60;99.90;;;;;;5035297;28;20481;-39
2021/11/09 12:18:31;;;;;;;10.40;3.45;;;12.50;99.90;;;;;;5035139;28;20579;-38
2021/11/09 12:20:59;;;;;;;7.18;3.22;;;12.50;99.90;;;;;;5034111;28;20017;-38
2021/11/09 12:23:28;;;;;;;8.70;3.00;;;12.60;99.90;;;;;;5034873;28;20025;-39
2021/11/09 12:25:54;;;;;;;11.70;3.53;;;12.60;99.90;;;;;;5035113;28;20022;-38
2021/11/09 12:28:30;;;;;;;11.05;3.08;;;12.60;99.90;;;;;;5034093;28;20029;-38
2021/11/09 12:30:56;;;;;;;8.98;2.65;;;12.60;99.90;;;;;;5035069;28;20400;-42
2021/11/09 12:33:25;;;;;;;8.38;2.35;;;12.70;99.90;;;;;;5034481;28;20129;-42
2021/11/09 12:36:11;;;;;;;7.93;2.25;;;12.60;99.90;;;;;;5034972;28;20080;-41
2021/11/09 12:38:43;;;;;;;6.20;3.10;;;12.60;99.90;;;;;;5034830;28;20022;-41
2021/11/09 12:41:15;;;;;;;5.00;2.00;;;12.60;99.90;;;;;;5034826;28;20366;-39
2021/11/09 12:43:48;;;;;;;3.53;1.88;;;12.70;99.90;;;;;;5034773;28;20477;-41
2021/11/09 12:46:32;;;;;;;3.10;1.38;;;12.70;99.90;;;;;;5034706;28;20091;-40
2021/11/09 12:49:04;;;;;;;8.55;1.80;;;12.80;99.90;;;;;;5034634;28;20508;-38
2021/11/09 12:51:41;;;;;;;5.47;2.00;;;12.80;99.90;;;;;;5034546;28;20033;-42
2021/11/09 12:54:13;;;;;;;5.00;1.50;;;12.80;99.90;;;;;;5034471;28;20108;-41
2021/11/09 12:56:47;;;;;;;7.97;1.80;;;12.80;99.90;;;;;;5033653;28;20036;-38
2021/11/09 13:02:12;;;;;;;6.15;1.50;;;12.70;99.90;;;;;;5034512;28;20495;-39
2021/11/09 13:07:41;;;;;;;3.67;1.40;;;12.60;99.90;;;;;;5034423;28;20056;-37
2021/11/09 13:10:13;;;;;;;3.92;1.52;;;12.50;99.40;;;;;;5034309;28;20540;-40
2021/11/09 13:12:40;;;;;;;2.45;1.35;;;12.50;99.90;;;;;;5033278;28;20540;-38
2021/11/09 13:15:19;;;;;;;5.93;1.52;;;12.40;99.90;;;;;;5034009;28;20499;-39
2021/11/09 13:17:48;;;;;;;3.38;1.00;;;12.40;99.90;;;;;;5034083;28;20104;-39
2021/11/09 13:23:08;;;;;;;2.45;1.00;;;12.30;99.90;;;;;;5034120;28;20032;-37
2021/11/09 13:25:38;;;;;;;3.20;1.30;;;12.20;99.90;;;;;;5033649;28;20026;-40
2021/11/09 13:28:28;;;;;;;3.78;1.23;;;12.30;99.90;;;;;;5033048;28;20033;-38
2021/11/09 13:31:06;;;;;;;4.43;1.55;;;12.30;98.60;;;;;;5033832;28;20029;-39
2021/11/09 13:33:32;;;;;;;2.75;1.33;;;12.30;99.90;;;;;;5033671;28;20045;-38
2021/11/09 13:35:59;;;;;;;4.53;1.30;;;12.20;99.90;;;;;;5033662;28;20422;-38
2021/11/09 13:38:40;;;;;;;4.05;1.33;;;12.20;99.90;;;;;;5033561;28;20025;-38
2021/11/09 13:41:15;;;;;;;2.72;0.95;;;12.20;98.90;;;;;;5030270;28;20021;-37
2021/11/09 13:43:46;;;;;;;2.63;1.00;;;12.20;99.90;;;;;;5033301;28;20500;-39
2021/11/09 13:46:14;;;;;;;2.03;1.08;;;12.20;99.90;;;;;;5033266;28;20462;-38
2021/11/09 13:48:46;;;;;;;3.17;1.20;;;12.20;99.90;;;;;;5033232;28;20104;-38
2021/11/09 13:51:15;;;;;;;2.85;1.08;;;12.20;99.90;;;;;;5033157;28;20034;-38
2021/11/09 13:53:48;;;;;;;3.90;1.42;;;12.20;99.90;;;;;;5032981;28;20041;-38
2021/11/09 13:56:23;;;;;;;4.55;1.50;;;12.20;99.90;;;;;;5032242;28;20029;-38
2021/11/09 13:59:07;;;;;;;2.05;1.08;;;12.20;99.90;;;;;;5033152;28;20380;-39
2021/11/09 14:01:36;;;;;;;1.95;1.13;;;12.10;99.90;;;;;;5032940;28;20034;-38
2021/11/09 14:07:40;;;;;;;4.40;1.33;;;12.10;99.90;;;;;;5020920;28;20037;-38
2021/11/09 14:13:06;;;;;;;4.38;1.30;;;12.00;99.90;;;;;;5031905;28;20044;-38
2021/11/09 14:18:15;;;;;;;2.95;1.13;;;11.90;99.90;;;;;;5032882;28;20064;-39
2021/11/09 14:20:56;;;;;;;2.63;1.17;;;11.80;99.90;;;;;;5032644;28;20442;-41
2021/11/09 14:23:34;;;;;;;5.63;1.20;;;11.80;99.90;;;;;;5032650;28;20362;-40
2021/11/09 14:26:19;;;;;;;2.60;1.08;;;11.70;99.90;;;;;;5032566;28;20385;-39
2021/11/09 14:28:45;;;;;;;2.20;1.10;;;11.70;99.90;;;;;;5032453;28;20037;-39
2021/11/09 14:31:13;;;;;;;1.92;1.00;;;11.60;99.90;;;;;;5032683;28;20037;-40
2021/11/09 14:33:39;;;;;;;6.38;1.38;;;11.60;99.90;;;;;;5032323;28;20045;-41
2021/11/09 14:36:23;;;;;;;3.67;1.17;;;11.50;99.90;;;;;;5032660;28;20477;-39
2021/11/09 14:38:53;;;;;;;5.93;1.67;;;11.40;99.90;;;;;;5032717;28;20025;-37
2021/11/09 14:41:25;;;;;;;1.48;1.17;;;11.40;99.90;;;;;;5031802;28;20516;-39
2021/11/09 14:44:02;;;;;;;4.28;1.30;;;11.30;99.90;;;;;;5032201;28;20029;-39
2021/11/09 14:46:37;;;;;;;5.65;1.10;;;11.20;99.90;;;;;;5032510;28;20035;-38
2021/11/09 14:49:16;;;;;;;4.57;1.15;;;11.10;99.90;;;;;;5032477;28;20105;-40
2021/11/09 14:51:45;;;;;;;4.80;1.48;;;11.00;99.90;;;;;;5032571;28;20030;-37
2021/11/09 14:54:18;;;;;;;4.43;2.00;;;11.00;99.90;;;;;;5024871;28;20164;-38
2021/11/09 14:56:44;;;;;;;6.63;1.52;;;11.00;99.90;;;;;;5031231;28;20038;-38
2021/11/09 14:59:14;;;;;;;5.05;1.30;;;10.90;99.90;;;;;;5032458;28;20093;-38
2021/11/09 15:02:07;;;;;;;4.88;1.67;;;10.90;99.90;;;;;;5032144;28;20029;-39
2021/11/09 15:04:52;;;;;;;4.72;1.25;;;10.90;99.90;;;;;;5032064;28;20029;-39
2021/11/09 15:07:25;;;;;;;2.67;1.30;;;10.90;99.90;;;;;;5032236;28;20419;-38